Time;durP1;ratioP1;P1;durP2;ratioP2;P2;SDS_P1;SDS_P2;PMS_P1;PMS_P2;Temp;Humidity;BMP_temperature;BMP_pressure;BME280_temperature;BME280_humidity;BME280_pressure;Samples;Min_cycle;Max_cycle;Signal;HPM_P1;HPM_P2
2022/03/01 00:00:18;;;;;;;6.35;3.35;;;;;;;2.38;49.68;101920.30;1634067;85;21093;-69
2022/03/01 00:02:46;;;;;;;7.37;3.47;;;;;;;2.35;49.77;101924.09;1604398;87;21546;-68
2022/03/01 00:05:13;;;;;;;7.55;4.22;;;;;;;2.35;49.89;101920.14;1624468;86;21053;-69
2022/03/01 00:07:40;;;;;;;7.30;3.92;;;;;;;2.36;49.90;101909.91;1634563;85;21102;-69
2022/03/01 00:10:11;;;;;;;7.55;3.80;;;;;;;2.37;49.88;101908.09;1634149;85;21736;-69
2022/03/01 00:12:38;;;;;;;9.25;4.03;;;;;;;2.33;49.96;101904.97;1634736;85;21552;-67
2022/03/01 00:15:06;;;;;;;8.43;3.85;;;;;;;2.33;50.05;101907.61;1634864;85;21078;-67
2022/03/01 00:17:34;;;;;;;6.92;4.10;;;;;;;2.32;50.16;101897.56;1633046;85;21058;-69
2022/03/01 00:20:01;;;;;;;8.30;4.03;;;;;;;2.30;50.13;101895.61;1628951;85;21083;-68
2022/03/01 00:22:28;;;;;;;8.40;4.50;;;;;;;2.28;50.23;101900.72;1635601;85;21122;-68
2022/03/01 00:24:56;;;;;;;5.90;3.27;;;;;;;2.24;50.35;101900.73;1628537;85;21579;-68
2022/03/01 00:27:23;;;;;;;6.95;3.33;;;;;;;2.24;50.33;101900.73;1630935;85;21066;-66
2022/03/01 00:29:50;;;;;;;5.60;3.30;;;;;;;2.24;50.53;101900.73;1633751;85;21546;-68
2022/03/01 00:32:17;;;;;;;7.45;4.40;;;;;;;2.23;50.47;101896.44;1630707;85;21165;-68
2022/03/01 00:34:43;;;;;;;7.30;3.50;;;;;;;2.25;50.54;101901.05;1602662;87;21912;-69
2022/03/01 00:37:11;;;;;;;5.78;3.30;;;;;;;2.24;50.55;101902.05;1578417;89;21109;-67
2022/03/01 00:39:38;;;;;;;5.67;3.30;;;;;;;2.20;50.79;101899.41;1609024;87;21696;-68
2022/03/01 00:42:07;;;;;;;6.25;3.37;;;;;;;2.21;50.80;101898.44;1626504;86;21370;-68
2022/03/01 00:44:36;;;;;;;5.53;3.35;;;;;;;2.19;50.84;101895.95;1635000;85;21075;-67
2022/03/01 00:47:04;;;;;;;7.75;3.85;;;;;;;2.18;50.90;101894.82;1634660;85;21156;-69
2022/03/01 00:49:34;;;;;;;6.58;3.45;;;;;;;2.17;51.02;101899.24;1633209;85;21739;-68
2022/03/01 00:52:02;;;;;;;5.87;3.02;;;;;;;2.16;51.10;101891.52;1626342;86;21031;-68
2022/03/01 00:54:29;;;;;;;4.65;2.65;;;;;;;2.16;51.25;101900.74;1605101;87;21107;-67
2022/03/01 00:56:58;;;;;;;5.72;3.05;;;;;;;2.14;51.29;101890.84;1630721;85;20985;-68
2022/03/01 00:59:26;;;;;;;6.80;2.80;;;;;;;2.13;51.40;101897.13;1633917;85;21549;-67
2022/03/01 01:01:53;;;;;;;6.25;3.10;;;;;;;2.10;51.60;101890.36;1635506;85;21121;-67
2022/03/01 01:04:20;;;;;;;5.85;2.70;;;;;;;2.08;51.73;101888.41;1637154;85;21027;-68
2022/03/01 01:06:47;;;;;;;5.30;2.98;;;;;;;2.07;51.89;101888.91;1636310;85;21555;-67
2022/03/01 01:09:16;;;;;;;6.25;3.00;;;;;;;2.05;52.21;101890.88;1632908;85;21153;-67
2022/03/01 01:11:44;;;;;;;7.03;3.27;;;;;;;2.00;52.47;101892.36;1634834;85;21116;-67
2022/03/01 01:14:12;;;;;;;6.45;3.33;;;;;;;2.00;52.72;101897.14;1632966;85;21027;-69
2022/03/01 01:16:39;;;;;;;6.05;3.10;;;;;;;2.00;53.06;101893.69;1606258;87;21059;-68
2022/03/01 01:19:07;;;;;;;6.45;2.90;;;;;;;1.95;53.71;101902.60;1626907;86;21616;-68
2022/03/01 01:24:20;;;;;;;6.12;2.70;;;;;;;1.81;54.53;101908.88;1581344;89;21883;-67
2022/03/01 01:26:47;;;;;;;6.58;2.92;;;;;;;1.76;54.78;101915.62;1634949;85;20992;-67
2022/03/01 01:29:15;;;;;;;5.78;3.08;;;;;;;1.70;55.15;101913.14;1633303;85;21098;-66
2022/03/01 01:31:44;;;;;;;5.30;2.87;;;;;;;1.67;55.36;101908.20;1632624;85;21121;-68
2022/03/01 01:34:11;;;;;;;6.40;3.12;;;;;;;1.68;55.37;101905.06;1633091;85;21531;-66
2022/03/01 01:36:38;;;;;;;6.05;2.90;;;;;;;1.67;55.50;101908.20;1632279;85;21751;-68
2022/03/01 01:39:05;;;;;;;5.15;2.90;;;;;;;1.67;55.55;101907.38;1636669;85;21602;-67
2022/03/01 01:41:33;;;;;;;6.28;2.90;;;;;;;1.63;55.95;101913.48;1634862;85;21193;-67
2022/03/01 01:44:05;;;;;;;5.33;2.92;;;;;;;1.58;56.32;101919.25;1632242;85;21054;-68
2022/03/01 01:46:32;;;;;;;5.72;3.30;;;;;;;1.53;56.75;101915.45;1631895;85;21751;-67
2022/03/01 01:48:59;;;;;;;6.08;3.00;;;;;;;1.50;56.95;101917.91;1634208;85;21184;-67
2022/03/01 01:51:26;;;;;;;5.33;3.10;;;;;;;1.50;57.23;101909.19;1634101;85;21548;-66
2022/03/01 01:53:54;;;;;;;5.42;3.10;;;;;;;1.50;57.52;101915.28;1633578;85;21250;-68
2022/03/01 01:56:21;;;;;;;5.95;3.35;;;;;;;1.47;57.92;101911.66;1631598;85;21564;-68
2022/03/01 01:58:48;;;;;;;6.62;3.20;;;;;;;1.44;58.25;101909.84;1633743;85;21702;-66
2022/03/01 02:01:15;;;;;;;6.25;3.50;;;;;;;1.43;58.66;101912.97;1636674;84;21555;-67
2022/03/01 02:03:43;;;;;;;5.45;3.17;;;;;;;1.43;59.01;101913.47;1607447;87;21066;-68
2022/03/01 02:23:45;;;;;;;7.60;3.87;;;;;;;1.11;62.16;101901.89;1793300;78;22688;-69
2022/03/01 02:26:12;;;;;;;6.65;3.90;;;;;;;1.02;62.85;101902.39;1769336;80;21078;-67
2022/03/01 02:28:40;;;;;;;6.72;3.65;;;;;;;0.97;63.42;101908.61;1771898;80;21549;-67
2022/03/01 02:31:07;;;;;;;7.30;3.90;;;;;;;0.93;63.84;101911.23;1772164;80;21023;-68
2022/03/01 02:33:35;;;;;;;8.15;4.20;;;;;;;0.90;64.32;101904.48;1770863;80;21058;-68
2022/03/01 02:36:02;;;;;;;5.60;3.25;;;;;;;0.88;64.61;101907.75;1771304;80;21561;-68
2022/03/01 02:38:29;;;;;;;8.18;4.25;;;;;;;0.89;65.04;101902.84;1772380;80;21166;-68
2022/03/01 02:40:57;;;;;;;6.37;4.03;;;;;;;0.86;65.46;101901.84;1772181;80;21894;-68
2022/03/01 02:43:23;;;;;;;9.40;4.87;;;;;;;0.85;65.84;101898.05;1769220;80;21027;-67
2022/03/01 02:45:51;;;;;;;8.53;4.50;;;;;;;0.84;66.14;101900.36;1769306;80;20971;-67
2022/03/01 02:48:18;;;;;;;7.70;4.00;;;;;;;0.85;66.36;101894.92;1773209;80;20991;-67
2022/03/01 02:50:47;;;;;;;7.40;3.75;;;;;;;0.88;66.67;101896.41;1778399;80;21499;-67
2022/03/01 02:53:19;;;;;;;7.70;3.62;;;;;;;0.90;66.84;101893.14;1781650;80;21162;-66
2022/03/01 02:55:43;;;;;;;8.90;4.12;;;;;;;0.92;67.05;101888.53;1780333;80;21047;-68
2022/03/01 02:58:10;;;;;;;8.33;4.10;;;;;;;0.94;67.21;101893.14;1772356;80;20968;-68
2022/03/01 03:00:38;;;;;;;6.78;3.67;;;;;;;0.96;67.37;101889.88;1771830;80;21046;-67
2022/03/01 03:03:05;;;;;;;7.80;4.05;;;;;;;0.99;67.52;101882.98;1767769;80;21561;-67
2022/03/01 03:05:32;;;;;;;8.03;4.40;;;;;;;1.00;67.70;101887.24;1776556;80;22667;-67
2022/03/01 03:08:00;;;;;;;6.50;3.72;;;;;;;1.03;67.81;101881.66;1770162;80;21051;-68
2022/03/01 03:10:27;;;;;;;9.28;4.50;;;;;;;1.02;68.04;101882.66;1771751;80;21629;-67
2022/03/01 03:12:54;;;;;;;8.63;4.55;;;;;;;1.02;68.23;101879.17;1768878;80;21050;-66
2022/03/01 03:15:21;;;;;;;8.78;4.30;;;;;;;1.06;68.39;101886.60;1776765;80;21031;-67
2022/03/01 03:17:49;;;;;;;6.92;4.12;;;;;;;1.11;68.53;101878.22;1775296;80;21143;-66
2022/03/01 03:20:16;;;;;;;9.00;4.85;;;;;;;1.15;68.53;101877.75;1771021;80;21067;-67
2022/03/01 03:22:43;;;;;;;8.85;4.92;;;;;;;1.14;68.51;101873.45;1767846;79;21566;-66
2022/03/01 03:25:11;;;;;;;8.40;4.65;;;;;;;1.15;68.51;101879.06;1753594;80;21051;-67
2022/03/01 03:27:38;;;;;;;9.35;5.35;;;;;;;1.12;68.53;101878.56;1756877;80;21013;-67
2022/03/01 03:30:07;;;;;;;7.85;4.62;;;;;;;1.11;68.64;101872.95;1753496;80;21176;-67
2022/03/01 03:32:36;;;;;;;9.23;5.12;;;;;;;1.06;68.80;101873.45;1757622;80;20965;-66
2022/03/01 03:35:04;;;;;;;8.73;4.75;;;;;;;1.03;69.00;101869.00;1755528;81;21048;-67
2022/03/01 03:37:32;;;;;;;8.80;4.83;;;;;;;0.99;69.29;101865.03;1760293;80;21040;-66
2022/03/01 03:39:59;;;;;;;9.50;4.85;;;;;;;0.99;69.49;101869.83;1757121;80;21035;-67
2022/03/01 03:42:27;;;;;;;10.13;5.00;;;;;;;1.00;69.65;101862.25;1757804;80;21578;-67
2022/03/01 03:44:54;;;;;;;10.30;5.10;;;;;;;1.02;69.80;101861.61;1759217;80;21517;-67
2022/03/01 03:47:21;;;;;;;8.65;4.62;;;;;;;1.03;69.89;101855.35;1758789;80;21022;-66
2022/03/01 03:49:50;;;;;;;8.40;4.72;;;;;;;1.05;69.94;101856.00;1689872;83;21062;-68
2022/03/01 03:52:16;;;;;;;8.43;4.90;;;;;;;1.04;70.00;101850.41;1756701;80;21019;-68
2022/03/01 03:54:43;;;;;;;8.45;4.83;;;;;;;1.05;70.04;101849.91;1739751;81;21130;-68
2022/03/01 03:57:10;;;;;;;9.08;5.28;;;;;;;1.04;70.14;101846.96;1757012;80;22205;-68
2022/03/01 03:59:38;;;;;;;9.15;5.60;;;;;;;1.02;70.21;101852.40;1760186;80;21024;-68
2022/03/01 04:02:06;;;;;;;7.50;4.72;;;;;;;1.00;70.30;101846.47;1756458;80;21063;-68
2022/03/01 04:04:34;;;;;;;9.68;5.22;;;;;;;0.99;70.42;101840.88;1757479;80;20992;-68
2022/03/01 04:07:02;;;;;;;11.00;5.60;;;;;;;0.98;70.51;101841.84;1757005;80;21165;-69
2022/03/01 04:09:31;;;;;;;9.93;5.50;;;;;;;0.96;70.62;101838.58;1755519;80;21629;-67
2022/03/01 04:11:59;;;;;;;11.35;5.50;;;;;;;0.95;70.77;101839.54;1756481;80;21048;-68
2022/03/01 04:14:26;;;;;;;9.20;5.72;;;;;;;0.91;70.89;101840.36;1754445;80;20993;-67
2022/03/01 04:16:53;;;;;;;10.98;5.67;;;;;;;0.89;71.07;101832.32;1752859;80;21079;-67
2022/03/01 04:19:21;;;;;;;10.28;5.83;;;;;;;0.90;71.23;101831.33;1751319;79;21586;-67
2022/03/01 04:21:48;;;;;;;11.38;5.75;;;;;;;0.93;71.27;101835.77;1762115;80;21004;-67
2022/03/01 04:24:15;;;;;;;10.23;5.42;;;;;;;0.93;71.32;101829.69;1753962;81;21016;-68
2022/03/01 04:26:43;;;;;;;11.18;5.72;;;;;;;0.94;71.39;101828.20;1750646;80;21036;-67
2022/03/01 04:29:12;;;;;;;8.93;4.55;;;;;;;0.95;71.40;101830.33;1751712;80;21025;-67
2022/03/01 04:31:40;;;;;;;7.28;4.67;;;;;;;0.96;71.48;101826.73;1755183;80;22045;-68
2022/03/01 04:34:06;;;;;;;9.15;5.15;;;;;;;0.98;71.52;101834.45;1756447;80;21123;-66
2022/03/01 04:36:34;;;;;;;9.50;5.50;;;;;;;0.98;71.52;101834.45;1754717;80;20965;-67
2022/03/01 04:39:01;;;;;;;9.83;5.15;;;;;;;0.98;71.61;101835.77;1758118;80;20997;-68
2022/03/01 04:41:29;;;;;;;8.05;5.15;;;;;;;1.02;71.63;101838.39;1759194;80;21067;-67
2022/03/01 04:43:55;;;;;;;8.73;5.15;;;;;;;1.02;71.61;101831.35;1755147;79;21823;-68
2022/03/01 04:46:22;;;;;;;7.75;4.83;;;;;;;1.03;71.64;101839.56;1755094;80;21055;-68
2022/03/01 04:48:49;;;;;;;8.65;5.10;;;;;;;1.02;71.67;101830.50;1750693;80;21076;-68
2022/03/01 04:51:21;;;;;;;8.30;5.42;;;;;;;1.06;71.69;101834.48;1745697;81;21040;-68
2022/03/01 04:53:45;;;;;;;10.72;5.65;;;;;;;1.08;71.68;101841.20;1750011;80;21087;-68
2022/03/01 04:56:12;;;;;;;8.23;4.42;;;;;;;1.11;71.70;101842.19;1756863;80;22147;-67
2022/03/01 04:58:39;;;;;;;8.98;5.20;;;;;;;1.13;71.69;101845.50;1751858;80;21103;-67
2022/03/01 05:01:07;;;;;;;10.40;5.03;;;;;;;1.12;71.66;101845.17;1753386;80;21051;-68
2022/03/01 05:03:35;;;;;;;8.73;5.03;;;;;;;1.11;71.68;101845.32;1747529;80;21146;-67
2022/03/01 05:06:02;;;;;;;9.85;5.45;;;;;;;1.10;71.67;101842.38;1749012;80;21057;-67
2022/03/01 05:08:30;;;;;;;9.40;5.03;;;;;;;1.09;71.68;101844.68;1753999;80;21263;-67
2022/03/01 05:11:01;;;;;;;8.25;4.90;;;;;;;1.12;71.66;101848.30;1753088;80;21546;-67
2022/03/01 05:13:30;;;;;;;8.38;5.28;;;;;;;1.11;71.62;101844.01;1759939;80;21129;-67
2022/03/01 05:16:01;;;;;;;8.83;4.97;;;;;;;1.09;71.64;101853.39;1757774;79;21020;-67
2022/03/01 05:18:28;;;;;;;9.63;5.00;;;;;;;1.10;71.62;101845.00;1754413;80;21102;-68
2022/03/01 05:20:55;;;;;;;9.83;5.70;;;;;;;1.10;71.64;101848.45;1754563;80;21130;-68
2022/03/01 05:23:22;;;;;;;9.28;5.20;;;;;;;1.13;71.65;101843.36;1754109;80;21111;-66
2022/03/01 05:25:49;;;;;;;8.20;5.03;;;;;;;1.14;71.66;101840.55;1755431;80;21059;-69
2022/03/01 05:28:17;;;;;;;9.28;5.25;;;;;;;1.14;71.63;101837.92;1749367;80;21547;-67
2022/03/01 05:30:44;;;;;;;10.18;5.90;;;;;;;1.13;71.64;101843.36;1752448;80;21574;-68
2022/03/01 05:33:12;;;;;;;7.67;5.08;;;;;;;1.14;71.66;101836.61;1751380;80;21815;-67
2022/03/01 05:35:38;;;;;;;8.85;5.10;;;;;;;1.16;71.62;101845.67;1756160;80;21539;-67
2022/03/01 05:38:09;;;;;;;8.33;5.03;;;;;;;1.17;71.59;101838.91;1755733;79;21024;-68
2022/03/01 05:40:38;;;;;;;7.85;4.92;;;;;;;1.15;71.62;101834.33;1689927;83;21530;-67
2022/03/01 05:43:06;;;;;;;7.67;4.70;;;;;;;1.17;71.67;101834.97;1689118;83;21150;-67
2022/03/01 05:45:36;;;;;;;9.58;5.97;;;;;;;1.20;71.68;101828.56;1702754;82;21812;-67
2022/03/01 05:48:04;;;;;;;9.48;5.47;;;;;;;1.23;71.68;101828.73;1702825;82;21064;-67
2022/03/01 05:50:31;;;;;;;9.90;5.90;;;;;;;1.28;71.69;101819.83;1689203;83;21058;-69
2022/03/01 05:52:58;;;;;;;9.40;5.25;;;;;;;1.32;71.68;101817.23;1704095;82;21064;-69
2022/03/01 05:55:25;;;;;;;9.60;5.35;;;;;;;1.34;71.67;101813.91;1687725;83;21119;-68
2022/03/01 05:57:53;;;;;;;8.18;5.15;;;;;;;1.34;71.62;101810.78;1689504;82;21149;-68
2022/03/01 06:00:21;;;;;;;10.08;5.28;;;;;;;1.38;71.68;101812.59;1753896;80;21530;-68
2022/03/01 06:02:50;;;;;;;8.08;5.30;;;;;;;1.44;71.68;101815.88;1755117;80;21579;-67
2022/03/01 06:05:17;;;;;;;8.20;5.42;;;;;;;1.51;71.68;101818.17;1753822;80;21067;-67
2022/03/01 06:07:44;;;;;;;9.18;5.65;;;;;;;1.56;71.60;101823.78;1751852;79;21067;-68
2022/03/01 06:10:12;;;;;;;9.93;5.40;;;;;;;1.67;71.57;101824.42;1749044;81;21153;-68
2022/03/01 06:12:39;;;;;;;8.55;5.15;;;;;;;1.75;71.46;101829.19;1741995;81;21053;-68
2022/03/01 06:15:07;;;;;;;9.23;6.03;;;;;;;1.80;71.21;101819.45;1751990;80;21114;-67
2022/03/01 06:17:34;;;;;;;9.18;5.35;;;;;;;1.77;70.81;101819.79;1759148;80;21095;-68
2022/03/01 06:20:01;;;;;;;9.33;4.65;;;;;;;1.76;70.66;101815.52;1757612;80;21082;-67
2022/03/01 06:22:29;;;;;;;8.40;4.95;;;;;;;1.78;70.60;101818.32;1758655;80;21888;-68
2022/03/01 06:24:56;;;;;;;9.43;5.20;;;;;;;1.78;70.25;101813.55;1759947;80;21052;-67
2022/03/01 06:27:25;;;;;;;8.30;5.03;;;;;;;1.79;70.15;101813.37;1759983;80;20937;-68
2022/03/01 06:29:53;;;;;;;7.83;4.95;;;;;;;1.81;69.98;101815.36;1754447;80;21517;-69
2022/03/01 06:32:21;;;;;;;7.60;4.60;;;;;;;1.80;69.68;101819.45;1752093;79;21051;-68
2022/03/01 06:34:51;;;;;;;7.85;4.47;;;;;;;1.75;69.47;101817.34;1756455;80;21286;-67
2022/03/01 06:37:20;;;;;;;7.30;4.62;;;;;;;1.72;69.45;101814.22;1760368;80;21126;-67
2022/03/01 06:39:47;;;;;;;6.72;3.92;;;;;;;1.72;69.50;101816.36;1755888;80;20996;-66
2022/03/01 06:42:14;;;;;;;7.22;4.78;;;;;;;1.71;69.36;101824.41;1753667;80;21041;-67
2022/03/01 06:44:42;;;;;;;7.40;4.30;;;;;;;1.71;69.33;101819.14;1752214;80;21111;-67
2022/03/01 06:47:09;;;;;;;8.58;4.28;;;;;;;1.76;69.38;101826.06;1755613;80;21147;-67
2022/03/01 06:49:39;;;;;;;7.47;4.75;;;;;;;1.77;69.35;101824.56;1723662;82;21125;-66
2022/03/01 06:52:09;;;;;;;8.28;4.90;;;;;;;1.83;69.34;101829.16;1757363;80;21530;-67
2022/03/01 06:54:39;;;;;;;8.20;4.22;;;;;;;1.89;69.23;101828.99;1764660;81;21001;-67
2022/03/01 06:57:08;;;;;;;7.62;4.80;;;;;;;1.87;69.04;101829.64;1753422;80;21139;-67
2022/03/01 06:59:36;;;;;;;9.93;5.83;;;;;;;1.80;68.95;101826.86;1748223;80;21822;-66
2022/03/01 07:02:10;;;;;;;7.78;5.08;;;;;;;1.78;69.08;101827.55;1754342;80;21079;-67
2022/03/01 07:04:41;;;;;;;7.35;4.30;;;;;;;1.78;69.08;101827.55;1753570;80;21107;-70
2022/03/01 07:07:09;;;;;;;8.05;5.03;;;;;;;1.78;68.96;101834.13;1748263;80;21063;-66
2022/03/01 07:09:39;;;;;;;7.90;4.72;;;;;;;1.78;68.94;101828.05;1758611;80;21060;-68
2022/03/01 07:12:08;;;;;;;8.33;4.97;;;;;;;1.80;68.97;101823.41;1692035;83;22251;-67
2022/03/01 07:14:39;;;;;;;7.62;4.87;;;;;;;1.83;68.81;101825.20;1693907;83;21013;-69
2022/03/01 07:17:07;;;;;;;8.55;5.33;;;;;;;1.83;68.68;101817.80;1698745;83;21550;-69
2022/03/01 07:19:34;;;;;;;8.23;5.15;;;;;;;1.82;68.65;101824.89;1695049;83;21056;-72
2022/03/01 07:22:03;;;;;;;8.63;4.92;;;;;;;1.82;68.64;101826.70;1693622;83;20966;-70
2022/03/01 07:24:34;;;;;;;8.40;4.90;;;;;;;1.85;68.72;101823.73;1693612;83;21574;-70
2022/03/01 07:27:04;;;;;;;9.35;5.75;;;;;;;1.88;68.69;101826.05;1751345;80;21103;-71
2022/03/01 07:29:33;;;;;;;8.48;5.37;;;;;;;1.93;68.71;101826.84;1751132;81;21044;-69
2022/03/01 07:32:01;;;;;;;9.68;5.87;;;;;;;1.91;68.61;101823.07;1730842;81;21100;-69
2022/03/01 07:34:30;;;;;;;8.28;5.30;;;;;;;1.92;68.71;101822.07;1748682;81;21056;-73
2022/03/01 07:36:57;;;;;;;9.48;5.53;;;;;;;1.95;68.67;101827.50;1750181;80;21466;-71
2022/03/01 07:39:24;;;;;;;9.13;5.90;;;;;;;1.98;68.72;101825.85;1752627;81;21103;-66
2022/03/01 07:41:53;;;;;;;9.48;5.65;;;;;;;2.03;68.72;101826.16;1746987;81;21523;-69
2022/03/01 07:44:21;;;;;;;10.35;5.80;;;;;;;2.08;68.59;101820.70;1752389;81;21546;-70
2022/03/01 07:46:51;;;;;;;8.88;5.85;;;;;;;2.09;68.38;101821.02;1752959;80;21109;-70
2022/03/01 07:49:20;;;;;;;9.58;6.00;;;;;;;2.09;68.43;101819.70;1756449;80;21923;-72
2022/03/01 07:51:47;;;;;;;10.10;6.28;;;;;;;2.15;68.45;101825.30;1747051;80;21016;-70
2022/03/01 07:54:16;;;;;;;10.95;6.62;;;;;;;2.17;68.14;101816.71;1742844;81;21050;-68
2022/03/01 07:56:45;;;;;;;9.28;6.03;;;;;;;2.15;68.00;101823.48;1745516;81;21606;-70
2022/03/01 07:59:12;;;;;;;9.68;6.37;;;;;;;2.07;68.03;101824.34;1687603;83;21090;-72
2022/03/01 08:01:42;;;;;;;10.38;6.10;;;;;;;2.02;68.19;101825.33;1701666;82;21137;-71
2022/03/01 08:04:10;;;;;;;10.72;6.78;;;;;;;2.08;68.23;101825.16;1694274;82;21130;-69
2022/03/01 08:06:37;;;;;;;11.12;6.40;;;;;;;2.15;68.26;101822.67;1688842;83;21119;-72
2022/03/01 08:09:05;;;;;;;11.78;6.75;;;;;;;2.24;68.16;101824.29;1693877;83;21009;-70
2022/03/01 08:11:37;;;;;;;11.08;7.10;;;;;;;2.28;68.05;101818.99;1691965;83;21150;-70
2022/03/01 08:14:07;;;;;;;10.38;6.70;;;;;;;2.29;68.00;101815.36;1745583;80;21159;-69
2022/03/01 08:16:35;;;;;;;10.35;6.25;;;;;;;2.30;68.02;101823.58;1742182;80;21091;-69
2022/03/01 08:19:02;;;;;;;9.95;6.08;;;;;;;2.31;67.72;101820.79;1746262;81;21051;-67
2022/03/01 08:21:30;;;;;;;9.85;6.30;;;;;;;2.29;67.79;101821.95;1757358;80;21414;-69
2022/03/01 08:23:59;;;;;;;9.65;6.15;;;;;;;2.34;67.89;101816.49;1746735;81;21088;-69
2022/03/01 08:26:28;;;;;;;11.03;7.20;;;;;;;2.37;67.65;101807.42;1738908;81;21141;-72
2022/03/01 08:28:58;;;;;;;9.90;6.60;;;;;;;2.37;67.66;101810.06;1750304;79;21012;-70
2022/03/01 08:31:25;;;;;;;9.13;5.80;;;;;;;2.37;67.66;101808.74;1753471;81;21091;-70
2022/03/01 08:33:52;;;;;;;9.85;6.05;;;;;;;2.33;67.57;101812.19;1753483;81;21368;-70
2022/03/01 08:36:19;;;;;;;9.15;6.03;;;;;;;2.28;67.71;101808.45;1749013;81;21048;-69
2022/03/01 08:38:49;;;;;;;9.60;6.45;;;;;;;2.25;67.75;101807.47;1743068;81;21140;-72
2022/03/01 08:41:17;;;;;;;9.98;6.42;;;;;;;2.21;67.83;101809.63;1700609;82;21067;-69
2022/03/01 08:43:46;;;;;;;10.80;6.95;;;;;;;2.28;67.96;101804.49;1754454;80;21044;-68
2022/03/01 08:46:15;;;;;;;9.98;6.25;;;;;;;2.33;67.95;101795.05;1689337;83;21085;-71
2022/03/01 08:48:44;;;;;;;10.18;6.90;;;;;;;2.44;67.94;101795.19;1687966;83;21107;-70
2022/03/01 08:51:13;;;;;;;9.68;6.60;;;;;;;2.53;67.86;101799.44;1711738;83;22054;-70
2022/03/01 08:53:40;;;;;;;10.95;7.20;;;;;;;2.63;67.69;101798.37;1754272;80;21158;-69
2022/03/01 08:56:09;;;;;;;9.58;6.78;;;;;;;2.65;67.44;101795.07;1756764;80;21044;-69
2022/03/01 08:58:38;;;;;;;10.25;6.42;;;;;;;2.69;67.34;101789.77;1754544;80;21019;-68
2022/03/01 09:01:05;;;;;;;8.90;5.97;;;;;;;2.68;67.10;101786.81;1756516;80;21128;-69
2022/03/01 09:03:36;;;;;;;9.40;6.03;;;;;;;2.65;67.02;101791.93;1689630;83;21615;-67
2022/03/01 09:06:05;;;;;;;11.75;7.20;;;;;;;2.61;67.05;101790.64;1752892;80;21660;-68
2022/03/01 09:08:35;;;;;;;10.45;6.55;;;;;;;2.65;67.17;101789.80;1753738;79;21345;-69
2022/03/01 09:11:03;;;;;;;9.73;6.45;;;;;;;2.71;67.03;101797.02;1750648;80;21055;-69
2022/03/01 09:13:30;;;;;;;10.38;7.03;;;;;;;2.69;66.77;101795.86;1757122;80;21016;-68
2022/03/01 09:16:01;;;;;;;9.80;6.50;;;;;;;2.65;66.62;101793.75;1751761;79;21905;-68
2022/03/01 09:18:30;;;;;;;13.48;7.53;;;;;;;2.60;66.57;101799.56;1754468;81;21129;-71
2022/03/01 09:20:58;;;;;;;10.55;7.10;;;;;;;2.61;66.66;101790.64;1747806;80;21059;-71
2022/03/01 09:23:28;;;;;;;10.63;7.53;;;;;;;2.65;66.73;101802.48;1753310;80;21134;-69
2022/03/01 09:25:56;;;;;;;12.82;8.25;;;;;;;2.72;66.63;101794.69;1746827;80;21051;-70
2022/03/01 09:28:27;;;;;;;10.48;7.17;;;;;;;2.81;66.54;101798.92;1725500;81;21172;-68
2022/03/01 09:30:55;;;;;;;12.50;8.53;;;;;;;2.84;66.29;101794.62;1709667;83;21064;-70
2022/03/01 09:33:24;;;;;;;10.82;7.50;;;;;;;2.85;66.32;101788.84;1744449;80;21636;-70
2022/03/01 09:35:51;;;;;;;12.30;7.55;;;;;;;2.86;66.16;101788.65;1746724;81;21103;-69
2022/03/01 09:38:24;;;;;;;10.38;6.58;;;;;;;2.85;66.21;101785.70;1751203;80;21027;-70
2022/03/01 09:40:54;;;;;;;11.03;6.95;;;;;;;2.90;66.03;101795.75;1710853;82;21072;-69
2022/03/01 09:43:25;;;;;;;10.23;7.20;;;;;;;2.88;65.82;101785.85;1690417;83;21095;-69
2022/03/01 09:45:55;;;;;;;12.63;7.45;;;;;;;2.83;65.81;101785.08;1704834;82;21047;-68
2022/03/01 09:48:26;;;;;;;10.18;7.58;;;;;;;2.84;65.96;101784.57;1703447;82;21055;-68
2022/03/01 09:50:57;;;;;;;11.10;7.17;;;;;;;2.88;65.90;101784.53;1700146;82;21092;-67
2022/03/01 09:53:27;;;;;;;11.43;7.80;;;;;;;2.91;65.87;101781.55;1698892;82;21087;-71
2022/03/01 09:55:59;;;;;;;10.20;7.15;;;;;;;2.88;65.75;101777.94;1755910;80;21102;-69
2022/03/01 09:58:26;;;;;;;8.10;5.58;;;;;;;2.85;65.63;101775.14;1750583;81;21530;-69
2022/03/01 10:00:56;;;;;;;11.65;7.25;;;;;;;2.82;65.72;101765.75;1688142;83;21256;-69
2022/03/01 10:03:25;;;;;;;12.15;8.08;;;;;;;2.86;65.80;101770.68;1750934;80;21653;-70
2022/03/01 10:05:56;;;;;;;10.75;7.42;;;;;;;2.92;65.83;101766.84;1688803;83;21842;-67
2022/03/01 10:08:24;;;;;;;11.95;7.80;;;;;;;2.95;65.65;101769.13;1750846;80;21051;-68
2022/03/01 10:10:53;;;;;;;11.97;7.78;;;;;;;2.99;65.62;101766.45;1684853;83;21020;-71
2022/03/01 10:13:27;;;;;;;12.53;7.60;;;;;;;2.99;65.54;101762.48;1758319;80;21039;-74
2022/03/01 10:16:07;;;;;;;12.65;8.38;;;;;;;2.96;65.59;101759.39;1752441;80;21617;-69
2022/03/01 10:18:41;;;;;;;12.47;7.85;;;;;;;3.00;65.64;101762.02;1752070;80;21210;-70
2022/03/01 10:21:13;;;;;;;12.25;8.00;;;;;;;3.04;65.57;101755.37;1627716;80;10000069;-70
2022/03/01 10:23:50;;;;;;;13.20;8.28;;;;;;;3.08;65.62;101755.84;1632409;81;10000401;-73
2022/03/01 10:26:21;;;;;;;11.90;8.15;;;;;;;3.15;65.51;101751.48;1751091;81;21524;-74
2022/03/01 10:28:51;;;;;;;11.35;7.53;;;;;;;3.19;65.30;101749.65;1756101;80;21095;-72
2022/03/01 10:31:24;;;;;;;11.15;7.45;;;;;;;3.25;64.98;101742.81;1754496;81;21636;-69
2022/03/01 10:34:13;;;;;;;11.22;7.80;;;;;;;3.23;64.96;101746.15;1749651;81;21618;-69
2022/03/01 10:36:51;;;;;;;11.55;7.62;;;;;;;3.23;65.01;101743.51;1689824;83;21072;-68
2022/03/01 10:39:30;;;;;;;12.33;8.63;;;;;;;3.31;64.84;101739.96;1703025;82;22229;-68
2022/03/01 10:42:03;;;;;;;15.75;10.03;;;;;;;3.35;64.74;101739.41;1689233;83;21079;-70
2022/03/01 10:44:33;;;;;;;14.68;9.80;;;;;;;3.44;64.78;101741.48;1670647;83;21052;-69
2022/03/01 10:47:04;;;;;;;13.00;9.03;;;;;;;3.52;64.68;101736.09;1754276;81;21071;-70
2022/03/01 10:49:35;;;;;;;12.20;8.75;;;;;;;3.56;64.65;101732.63;1754499;81;21068;-69
2022/03/01 10:52:08;;;;;;;13.83;9.38;;;;;;;3.64;64.61;101730.69;1756767;80;21820;-68
2022/03/01 10:54:42;;;;;;;14.75;9.90;;;;;;;3.68;64.50;101728.50;1745892;81;21109;-69
2022/03/01 10:57:21;;;;;;;13.78;9.70;;;;;;;3.67;64.14;101730.84;1673347;83;21130;-68
2022/03/01 10:59:49;;;;;;;13.80;9.08;;;;;;;3.69;64.32;101724.88;1691008;83;21072;-69
2022/03/01 11:02:22;;;;;;;13.83;9.73;;;;;;;3.71;64.24;101725.50;1702415;82;21122;-69
2022/03/01 11:04:51;;;;;;;12.75;8.73;;;;;;;3.68;64.18;101724.03;1761224;81;21111;-70
2022/03/01 11:07:25;;;;;;;13.03;9.38;;;;;;;3.71;64.27;101718.39;1755891;81;21043;-67
2022/03/01 11:09:52;;;;;;;14.13;9.28;;;;;;;3.79;64.28;101723.28;1725131;82;21075;-69
2022/03/01 11:12:26;;;;;;;12.85;8.40;;;;;;;3.82;64.17;101723.73;1694792;81;21617;-71
2022/03/01 11:15:15;;;;;;;13.25;8.78;;;;;;;3.83;64.20;101722.72;1751169;80;21091;-71
2022/03/01 11:18:07;;;;;;;11.97;7.45;;;;;;;3.80;64.06;101723.09;1713688;82;21176;-68
2022/03/01 11:20:43;;;;;;;13.50;9.13;;;;;;;3.80;64.17;101719.13;1751015;81;21569;-69
2022/03/01 11:23:15;;;;;;;12.90;8.60;;;;;;;3.76;64.08;101714.70;1750149;81;21119;-68
2022/03/01 11:25:47;;;;;;;14.28;9.05;;;;;;;3.73;64.08;101718.22;1752668;81;21633;-68
2022/03/01 11:28:17;;;;;;;;;;;;;;;3.70;64.20;101711.47;1754411;79;21138;-70
2022/03/01 11:30:51;;;;;;;13.48;8.88;;;;;;;3.69;64.31;101710.35;1752569;81;21134;-70
2022/03/01 11:33:28;;;;;;;13.22;8.48;;;;;;;3.66;64.42;101704.92;1750539;81;21046;-69
2022/03/01 11:36:01;;;;;;;14.15;9.33;;;;;;;3.66;64.55;101710.20;1750481;81;21047;-70
2022/03/01 11:38:32;;;;;;;15.83;10.05;;;;;;;3.63;64.56;101703.15;1729466;81;21509;-70
2022/03/01 11:41:20;;;;;;;15.55;9.35;;;;;;;3.65;64.70;101707.26;1744763;81;21114;-70
2022/03/01 11:43:59;;;;;;;15.60;9.95;;;;;;;3.69;64.75;101705.06;1751734;80;23443;-70
2022/03/01 11:46:27;;;;;;;16.62;9.90;;;;;;;3.72;64.84;101703.38;1742366;81;21637;-69
2022/03/01 11:48:56;;;;;;;17.20;11.12;;;;;;;3.78;64.79;101707.09;1765572;80;21079;-67
2022/03/01 11:51:36;;;;;;;15.15;9.70;;;;;;;3.83;64.83;101707.38;1752829;81;21109;-70
2022/03/01 11:54:11;;;;;;;15.55;10.40;;;;;;;3.87;64.80;101704.67;1752170;80;21130;-70
2022/03/01 11:56:41;;;;;;;15.03;9.60;;;;;;;3.87;64.79;101700.70;1760842;81;21558;-70
2022/03/01 11:59:11;;;;;;;16.60;10.35;;;;;;;3.89;64.86;101699.52;1691131;83;21066;-70